Flight Track Log - Related Links

Times and Time Zones

All times are in EDT time to prevent confusion due to time zone crossing. See the SWA3497 flight status page for this flight to view local times or setup timezone preferences in your user account.

Time Position Orientation Groundspeed Altitude Reporting Facility
EDT Latitude Longitude Course Direction KTS MPH feet Rate Location/Type
Fri 02:17:09 PM 38.1889 -85.7678 301° West 147 169 1,900  Level FAA TRACON SMA TRACON (SMA)
Fri 02:17:28 PM 38.1969 -85.7897 295° West 177 204 3,000 2,667 Climbing FAA TRACON SMA TRACON (SMA)
Fri 02:17:45 PM 38.2022 -85.8039 295° West 186 214 3,500 2,842 Climbing FAA TRACON SMA TRACON (SMA)
Fri 02:18:06 PM 38.2117 -85.8281 296° West 196 226 4,800 3,750 Climbing FAA TRACON SMA TRACON (SMA)
Fri 02:18:25 PM 38.2192 -85.8469 297° West 197 227 6,000 3,900 Climbing FAA TRACON SMA TRACON (SMA)
Fri 02:18:46 PM 38.2294 -85.8711 298° West 200 230 7,400 4,050 Climbing FAA TRACON SMA TRACON (SMA)
Fri 02:19:05 PM 38.2394 -85.8892 305° West 204 235 8,700 3,231 Climbing FAA TRACON SMA TRACON (SMA)
Fri 02:19:25 PM 38.2581 -85.8972 341° North 230 265 9,500 1,756 Climbing FAA TRACON SMA TRACON (SMA)
Fri 02:19:46 PM 38.2806 -85.8939 North 258 297 9,900 600 Climbing FAA TRACON SMA TRACON (SMA)
Fri 02:20:05 PM 38.3086 -85.8892 North 266 306 9,900 600 Level FAA TRACON SMA TRACON (SMA)
Fri 02:20:26 PM 38.3317 -85.8844 North 270 311 10,300 1,200 Climbing FAA TRACON SMA TRACON (SMA)
Fri 02:20:45 PM 38.3564 -85.8769 13° North 289 333 10,700 1,950 Climbing FAA TRACON SMA TRACON (SMA)
Fri 02:21:06 PM 38.3828 -85.8442 44° Northeast 340 391 11,600 2,553 Climbing FAA TRACON SMA TRACON (SMA)
Fri 02:21:32 PM 38.3917 -85.7944 77° East 377 434 12,700 3,333 Climbing FAA TRACON SMA TRACON (SMA)
Fri 02:21:51 PM 38.3917 -85.7422 90° East 384 442 14,100 3,706 Climbing FAA TRACON SMA TRACON (SMA)
Fri 02:22:06 PM 38.3917 -85.7097 90° East 391 450 14,800 2,571 Climbing FAA TRACON SMA TRACON (SMA)
Fri 02:22:26 PM 38.3828 -85.6692 106° East 396 456 15,600 1,692 Climbing FAA TRACON SMA TRACON (SMA)
Fri 02:22:45 PM 38.3675 -85.6336 119° Southeast 381 438 15,900 1,800 Climbing FAA TRACON SMA TRACON (SMA)
Fri 02:23:06 PM 38.3586 -85.5908 105° East 395 455 16,800 3,600 Climbing FAA TRACON SMA TRACON (SMA)
Fri 02:23:25 PM 38.3550 -85.5342 95° East 415 478 18,300 3,538 Climbing FAA TRACON SMA TRACON (SMA)
Fri 02:23:45 PM 38.3550 -85.4861 90° East 431 496 19,100 2,195 Climbing FAA TRACON SMA TRACON (SMA)
Fri 02:24:06 PM 38.3553 -85.4378 90° East 442 509 19,800 2,341 Climbing FAA TRACON SMA TRACON (SMA)
Fri 02:24:26 PM 38.3556 -85.3747 90° East 457 526 20,700 2,700 Climbing FAA TRACON SMA TRACON (SMA)
Fri 02:24:46 PM 38.3564 -85.3233 89° East 467 537 21,600 2,769 Climbing FAA TRACON SMA TRACON (SMA)
Fri 02:25:05 PM 38.3572 -85.2722 89° East 471 542 22,500 3,000 Climbing FAA TRACON SMA TRACON (SMA)
Fri 02:25:26 PM 38.3581 -85.2072 89° East 475 547 23,600 2,850 Climbing FAA TRACON SMA TRACON (SMA)
Fri 02:25:45 PM 38.3592 -85.1553 88° East 476 548 24,400 2,615 Climbing FAA TRACON SMA TRACON (SMA)
Fri 02:26:05 PM 38.3597 -85.1025 89° East 480 552 25,300 2,634 Climbing FAA TRACON SMA TRACON (SMA)
Fri 02:26:26 PM 38.3603 -85.0367 89° East 485 558 26,200 2,400 Climbing FAA TRACON SMA TRACON (SMA)
Fri 02:26:45 PM 38.3608 -84.9836 89° East 487 560 26,900 2,100 Climbing FAA TRACON SMA TRACON (SMA)
Fri 02:27:06 PM 38.3622 -84.9303 88° East 489 563 27,600 2,400 Climbing FAA TRACON SMA TRACON (SMA)
Fri 02:27:25 PM 38.3636 -84.8628 88° East 495 570 28,500 2,400 Climbing FAA TRACON SMA TRACON (SMA)
Fri 02:27:46 PM 38.3642 -84.8083 89° East 497 572 29,200 1,902 Climbing FAA TRACON SMA TRACON (SMA)
Fri 02:28:06 PM 38.3644 -84.7544 90° East 497 572 29,800 2,000 Climbing FAA TRACON SMA TRACON (SMA)
Fri 02:28:25 PM 38.3656 -84.7000 88° East 498 573 30,500 2,250 Climbing FAA TRACON SMA TRACON (SMA)
Fri 02:28:46 PM 38.3664 -84.6319 89° East 500 575 31,300 2,550 Climbing FAA TRACON SMA TRACON (SMA)
Fri 02:29:05 PM 38.3664 -84.5775 90° East 499 574 32,200 3,000 Climbing FAA TRACON SMA TRACON (SMA)
Fri 02:29:26 PM 38.3678 -84.5111 88° East 491 565 33,300 2,049 Climbing FAA TRACON SMA TRACON (SMA)
Fri 02:29:46 PM 38.3686 -84.4853 88° East 487 560 33,600 1,167 Climbing FAA TRACON SMA TRACON (SMA)
Fri 02:30:38 PM 38.3653 -84.3367 92° East 487 560 34,700 737 Climbing Indianapolis Center
Fri 02:31:40 PM 38.3653 -84.1303 90° East 499 574 35,000 780 Climbing Indianapolis Center
Fri 02:32:41 PM 38.3661 -83.9494 90° East 506 582 36,300 1,317 Climbing Indianapolis Center
Fri 02:33:43 PM 38.3664 -83.7681 90° East 508 585 37,700 1,161 Climbing Indianapolis Center
Fri 02:34:45 PM 38.3667 -83.5861 90° East 511 588 38,700 629 Climbing Indianapolis Center
Fri 02:35:47 PM 38.3656 -83.4019 90° East 517 595 39,000 145 Climbing Indianapolis Center
Fri 02:36:49 PM 38.3650 -83.2194 90° East 515 593 39,000  Level Indianapolis Center
Fri 02:37:50 PM 38.3636 -83.0369 90° East 513 590 39,000  Level Indianapolis Center
Fri 02:38:52 PM 38.3619 -82.8231 91° East 515 593 39,000  Level Indianapolis Center
Fri 02:39:54 PM 38.3603 -82.6372 91° East 519 597 39,000  Level Indianapolis Center
Fri 02:40:56 PM 38.3586 -82.4431 91° East 528 608 39,000  Level Indianapolis Center
Fri 02:41:57 PM 38.3569 -82.2561 91° East 529 609 39,000  Level Indianapolis Center
Fri 02:42:59 PM 38.3547 -82.0711 91° East 525 604 39,000  Level Indianapolis Center
Fri 02:44:01 PM 38.3528 -81.8847 91° East 528 608 39,000  Level Indianapolis Center
Fri 02:45:03 PM 38.3492 -81.6989 91° East 530 610 39,000  Level Indianapolis Center
Fri 02:46:05 PM 38.3419 -81.5122 93° East 532 612 39,000  Level Indianapolis Center
Fri 02:47:07 PM 38.3339 -81.2875 93° East 536 617 39,000  Level Indianapolis Center
Fri 02:48:08 PM 38.3278 -81.1006 92° East 535 616 39,000  Level Indianapolis Center
Fri 02:49:10 PM 38.3211 -80.9114 93° East 538 619 39,000  Level Indianapolis Center
Fri 02:50:12 PM 38.3142 -80.7208 93° East 541 623 39,000  Level Indianapolis Center
Fri 02:51:14 PM 38.3206 -80.5306 87° East 540 621 39,000  Level Indianapolis Center
Fri 02:52:16 PM 38.3475 -80.3339 80° East 550 633 39,000  Level Indianapolis Center
Fri 02:53:17 PM 38.3775 -80.1122 80° East 544 626 39,000  Level Indianapolis Center
Fri 02:54:19 PM 38.3989 -79.9250 82° East 546 628 39,000  Level Indianapolis Center
Fri 02:55:20 PM 38.4267 -79.7500 78° East 537 618 39,000  Level Washington Center
Fri 02:56:20 PM 38.4494 -79.5683 81° East 531 611 39,000 -900 Level Washington Center
Fri 02:57:20 PM 38.4700 -79.3839 82° East 531 611 37,200 -1,900 Descending Washington Center
Fri 02:58:20 PM 38.4922 -79.2072 81° East 519 597 35,200 -1,850 Descending Washington Center
Fri 02:59:20 PM 38.5142 -79.0225 81° East 490 564 33,500 -1,800 Descending Washington Center
Fri 03:00:20 PM 38.5314 -78.8508 83° East 482 555 31,600 -2,000 Descending Washington Center
Fri 03:01:20 PM 38.5503 -78.6897 81° East 477 549 29,500 -2,050 Descending Washington Center
Fri 03:02:20 PM 38.5689 -78.5286 82° East 464 534 27,500 -2,000 Descending Washington Center
Fri 03:03:20 PM 38.5853 -78.3753 82° East 452 520 25,500 -2,000 Descending Washington Center
Fri 03:04:20 PM 38.6033 -78.2217 81° East 441 507 23,500 -1,950 Descending Washington Center
Fri 03:05:20 PM 38.6189 -78.0708 82° East 436 502 21,600 -1,850 Descending Washington Center
Fri 03:06:20 PM 38.6342 -77.9278 82° East 424 488 19,800 -1,300 Descending Washington Center
Fri 03:07:20 PM 38.6431 -77.8006 85° East 411 473 19,000 -400 Descending Washington Center
Fri 03:08:20 PM 38.6517 -77.6653 85° East 391 450 19,000 -650 Level Washington Center
Fri 03:09:20 PM 38.6600 -77.5297 85° East 386 444 17,700 -1,338 Descending Washington Center
Fri 03:10:39 PM 38.6667 -77.3333 87° East 362 417 15,900 -1,388 Descending Potomac TRACON
Fri 03:11:34 PM 38.6833 -77.2167 80° East 365 420 14,600 -1,565 Descending Potomac TRACON
Fri 03:12:34 PM 38.6833 -77.1000 90° East 364 419 12,900 -1,664 Descending Potomac TRACON
Fri 03:13:33 PM 38.7000 -76.9667 81° East 364 419 11,300 -1,400 Descending Potomac TRACON
Fri 03:14:34 PM 38.7000 -76.8333 90° East 354 407 10,100 -1,289 Descending Potomac TRACON
Fri 03:15:34 PM 38.7167 -76.7167 80° East 338 389 8,700 -1,381 Descending Potomac TRACON
Fri 03:16:40 PM 38.7667 -76.6167 57° Northeast 335 386 7,200 -1,350 Descending Potomac TRACON
Fri 03:17:34 PM 38.8167 -76.5333 52° Northeast 337 388 6,000 -1,150 Descending Potomac TRACON
Fri 03:18:40 PM 38.9000 -76.5667 343° North 295 339 4,900 -952 Descending Potomac TRACON
Fri 03:19:40 PM 38.9833 -76.6167 335° Northwest 290 334 4,000 -429 Descending Potomac TRACON
Fri 03:20:46 PM 39.0167 -76.7000 297° West 265 305 4,000  Level Potomac TRACON
Fri 03:21:46 PM 39.0500 -76.7833 297° West 273 314 4,000  Level Potomac TRACON
Fri 03:22:52 PM 39.1167 -76.8333 330° Northwest 303 349 4,000 -476 Level Potomac TRACON
Fri 03:23:52 PM 39.2000 -76.8500 351° North 300 345 3,000 -789 Descending Potomac TRACON
Fri 03:24:46 PM 39.2667 -76.8167 21° North 265 305 2,500 -350 Descending Potomac TRACON
Fri 03:25:52 PM 39.2667 -76.7500 90° East 176 203 2,300 -476 Descending Potomac TRACON
Fri 03:26:52 PM 39.2333 -76.7333 159° South 135 155 1,500 -750 Descending Potomac TRACON
Fri 03:27:52 PM 39.2167 -76.7000 123° Southeast 133 153 800 -700 Descending Potomac TRACON
Fri 03:29:00 PM 39.1754 -76.6683 103° East  Level Estimated
Fri 03:36:00 PM 39.1754 -76.6683 103° East  Level Estimated

Login

Don't have an account? Register now (free) for customized features, flight alerts, and more!